createdAt,value
2022-09-12T00:07:33.266Z,11.40
2022-09-12T00:10:00.426Z,12.20
2022-09-12T00:12:27.433Z,10.50
2022-09-12T00:14:54.269Z,12.90
2022-09-12T00:17:21.259Z,11.20
2022-09-12T00:19:48.438Z,11.40
2022-09-12T00:22:15.147Z,10.30
2022-09-12T00:29:01.575Z,11.20
2022-09-12T00:31:28.636Z,11.20
2022-09-12T00:34:00.101Z,11.10
2022-09-12T00:36:29.748Z,11.10
2022-09-12T00:38:57.047Z,11.10
2022-09-12T00:41:29.342Z,11.10
2022-09-12T00:43:59.681Z,11.10
2022-09-12T00:52:11.580Z,11.40
2022-09-12T00:54:46.533Z,11.20
2022-09-12T00:57:16.185Z,11.00
2022-09-12T00:59:54.157Z,11.00
2022-09-12T01:02:21.521Z,11.10
2022-09-12T01:04:48.757Z,11.10
2022-09-12T01:07:16.145Z,11.00
2022-09-12T01:14:41.456Z,11.00
2022-09-12T01:17:12.354Z,10.90
2022-09-12T01:20:12.650Z,11.00
2022-09-12T01:23:20.034Z,11.00
2022-09-12T01:26:24.152Z,10.90
2022-09-12T01:29:21.907Z,10.90
2022-09-12T01:35:19.367Z,10.70
2022-09-12T01:37:54.189Z,10.90
2022-09-12T01:40:52.729Z,11.00
2022-09-12T01:43:20.452Z,12.20
2022-09-12T01:46:18.441Z,10.90
2022-09-12T01:49:21.688Z,11.40
2022-09-12T01:57:44.132Z,10.20
2022-09-12T02:00:12.407Z,10.70
2022-09-12T02:02:52.564Z,10.70
2022-09-12T02:05:32.717Z,10.60
2022-09-12T02:08:13.984Z,10.40
2022-09-12T02:10:50.178Z,10.50
2022-09-12T02:17:13.053Z,10.40
2022-09-12T02:19:48.484Z,12.60
2022-09-12T02:22:19.747Z,10.20
2022-09-12T02:24:52.392Z,10.40
2022-09-12T02:27:37.960Z,10.40
2022-09-12T02:30:06.343Z,10.40
2022-09-12T02:32:59.747Z,10.30
2022-09-12T02:40:44.726Z,10.30
2022-09-12T02:43:11.782Z,10.20
2022-09-12T02:45:38.664Z,10.30
2022-09-12T02:48:26.082Z,10.30
2022-09-12T02:50:53.568Z,10.30
2022-09-12T02:53:20.692Z,10.30
2022-09-12T02:55:47.817Z,10.30
2022-09-12T03:03:26.384Z,11.00
2022-09-12T03:05:57.479Z,10.40
2022-09-12T03:08:50.580Z,10.40
2022-09-12T03:11:49.085Z,10.30
2022-09-12T03:14:21.724Z,10.20
2022-09-12T03:17:13.594Z,10.20
2022-09-12T03:25:47.152Z,10.20
2022-09-12T03:28:15.656Z,10.10
2022-09-12T03:30:47.756Z,10.00
2022-09-12T03:33:17.309Z,10.00
2022-09-12T03:35:45.514Z,9.90
2022-09-12T03:38:12.767Z,10.00
2022-09-12T03:40:40.832Z,10.00
2022-09-12T03:47:16.262Z,9.90
2022-09-12T03:49:43.345Z,9.90
2022-09-12T03:52:10.555Z,9.10
2022-09-12T03:54:37.213Z,9.80
2022-09-12T03:57:04.169Z,9.80
2022-09-12T03:59:31.439Z,9.60
2022-09-12T04:01:58.139Z,9.70
2022-09-12T04:09:31.493Z,9.90
2022-09-12T04:11:58.449Z,9.90
2022-09-12T04:14:25.340Z,9.00
2022-09-12T04:16:52.374Z,9.90
2022-09-12T04:19:22.094Z,10.00
2022-09-12T04:21:49.296Z,10.00
2022-09-12T04:24:16.194Z,10.00
2022-09-12T04:31:49.667Z,9.90
2022-09-12T04:34:16.974Z,9.80
2022-09-12T04:36:43.866Z,9.80
2022-09-12T04:39:12.068Z,9.70
2022-09-12T04:41:41.333Z,9.60
2022-09-12T04:44:13.947Z,9.60
2022-09-12T04:46:44.303Z,9.80
2022-09-12T04:59:26.533Z,10.10
2022-09-12T05:01:53.929Z,9.80
2022-09-12T05:06:48.657Z,9.80
2022-09-12T05:09:15.936Z,9.90
2022-09-12T05:19:00.148Z,10.00
2022-09-12T05:21:27.731Z,10.00
2022-09-12T05:23:56.810Z,10.10
2022-09-12T05:26:24.361Z,10.10
2022-09-12T05:28:52.750Z,10.20
2022-09-12T05:31:27.408Z,10.10
2022-09-12T05:39:01.948Z,10.30
2022-09-12T05:41:31.123Z,10.30
2022-09-12T05:44:00.882Z,10.60
2022-09-12T05:46:30.802Z,10.70
2022-09-12T05:49:03.445Z,11.40
2022-09-12T05:51:33.500Z,10.10
2022-09-12T05:54:01.089Z,11.50
2022-09-12T06:01:35.295Z,11.50
2022-09-12T06:04:05.701Z,11.50
2022-09-12T06:06:35.123Z,11.50
2022-09-12T06:09:04.205Z,11.50
2022-09-12T06:11:37.259Z,11.50
2022-09-12T06:14:04.625Z,11.50
2022-09-12T06:16:33.676Z,11.60
2022-09-12T06:24:09.227Z,11.60
2022-09-12T06:29:04.336Z,11.90
2022-09-12T06:31:34.308Z,12.10
2022-09-12T06:34:03.047Z,12.30
2022-09-12T06:36:33.497Z,12.40
2022-09-12T06:39:10.300Z,12.50
2022-09-12T06:46:44.413Z,12.80
2022-09-12T06:49:15.023Z,13.20
2022-09-12T06:51:42.872Z,13.30
2022-09-12T06:54:15.068Z,13.50
2022-09-12T06:56:41.803Z,13.60
2022-09-12T06:59:08.616Z,13.70
2022-09-12T07:01:35.437Z,13.90
2022-09-12T07:08:34.840Z,14.20
2022-09-12T07:11:17.168Z,14.40
2022-09-12T07:13:55.868Z,14.80
2022-09-12T07:16:23.536Z,15.10
2022-09-12T07:18:55.487Z,15.40
2022-09-12T07:21:22.994Z,15.70
2022-09-12T07:23:51.722Z,16.00
2022-09-12T07:26:18.839Z,16.30
2022-09-12T07:41:53.078Z,16.70
2022-09-12T07:44:21.453Z,16.90
2022-09-12T07:46:48.452Z,17.00
2022-09-12T07:49:15.553Z,17.00
2022-09-12T07:51:43.153Z,17.10
2022-09-12T07:54:10.202Z,17.40
2022-09-12T07:56:39.415Z,17.70
2022-09-12T08:03:06.824Z,18.50
2022-09-12T08:05:33.998Z,19.10
2022-09-12T08:08:00.977Z,19.40
2022-09-12T08:10:27.907Z,19.70
2022-09-12T08:12:54.886Z,20.00
2022-09-12T08:15:21.602Z,20.20
2022-09-12T08:17:48.548Z,20.40
2022-09-12T08:24:46.403Z,20.80
2022-09-12T08:27:14.366Z,21.00
2022-09-12T08:29:41.409Z,20.90
2022-09-12T08:32:08.293Z,20.90
2022-09-12T08:34:35.228Z,20.90
2022-09-12T08:37:01.973Z,21.00
2022-09-12T08:39:28.817Z,21.20
2022-09-12T08:42:02.661Z,21.60
2022-09-12T08:50:05.733Z,22.10
2022-09-12T08:52:46.411Z,22.30
2022-09-12T08:55:26.037Z,22.50
2022-09-12T08:57:53.497Z,22.70
2022-09-12T09:00:21.061Z,23.10
2022-09-12T09:02:57.050Z,23.40
2022-09-12T09:09:26.067Z,23.50
2022-09-12T09:12:36.916Z,23.60
2022-09-12T09:15:09.417Z,24.00
2022-09-12T09:17:49.329Z,24.30
2022-09-12T09:20:29.699Z,24.40
2022-09-12T09:23:14.961Z,24.50
2022-09-12T09:31:26.547Z,25.10
2022-09-12T09:33:57.280Z,25.20
2022-09-12T09:37:00.692Z,25.20
2022-09-12T09:39:55.059Z,25.10
2022-09-12T09:42:43.973Z,24.60
2022-09-12T09:45:17.398Z,24.30
2022-09-12T09:52:59.529Z,24.00
2022-09-12T09:55:33.973Z,24.20
2022-09-12T09:58:01.225Z,24.40
2022-09-12T10:00:32.758Z,24.60
2022-09-12T10:03:13.137Z,24.70
2022-09-12T10:05:49.860Z,24.80
2022-09-12T10:16:07.782Z,25.20
2022-09-12T10:18:41.713Z,25.40
2022-09-12T10:21:14.101Z,25.20
2022-09-12T10:23:42.687Z,25.30
2022-09-12T10:26:12.893Z,25.40
2022-09-12T10:29:03.665Z,25.50
2022-09-12T10:31:43.187Z,25.60
2022-09-12T10:37:41.774Z,25.20
2022-09-12T10:40:33.764Z,24.80
2022-09-12T10:43:02.443Z,24.60
2022-09-12T10:45:35.532Z,24.70
2022-09-12T10:48:22.474Z,24.70
2022-09-12T10:50:49.599Z,24.30
2022-09-12T10:53:21.861Z,24.00
2022-09-12T11:01:36.040Z,23.90
2022-09-12T11:04:22.379Z,23.60
2022-09-12T11:07:04.160Z,23.50
2022-09-12T11:09:30.821Z,23.60
2022-09-12T11:12:26.434Z,23.60
2022-09-12T11:14:59.651Z,23.70
2022-09-12T11:17:57.712Z,23.80
2022-09-12T11:26:47.524Z,23.60
2022-09-12T11:29:29.511Z,23.70
2022-09-12T11:32:23.957Z,23.70
2022-09-12T11:35:06.233Z,23.60
2022-09-12T11:38:14.852Z,23.50
2022-09-12T11:41:03.275Z,23.40
2022-09-12T11:49:04.437Z,23.20
2022-09-12T11:51:44.011Z,23.00
2022-09-12T11:54:39.649Z,23.00
2022-09-12T11:57:38.890Z,23.10
2022-09-12T12:00:20.247Z,23.10
2022-09-12T12:03:13.393Z,23.20
2022-09-12T12:11:54.380Z,23.30
2022-09-12T12:14:45.255Z,23.30
2022-09-12T12:17:19.284Z,23.20
2022-09-12T12:19:47.864Z,23.30
2022-09-12T12:22:19.422Z,23.10
2022-09-12T12:25:29.870Z,23.10
2022-09-12T12:28:01.173Z,23.10
2022-09-12T12:35:59.970Z,23.20
2022-09-12T12:38:31.328Z,23.00
2022-09-12T12:41:16.656Z,22.80
2022-09-12T12:43:45.587Z,22.70
2022-09-12T12:46:22.180Z,22.60
2022-09-12T12:49:10.706Z,22.50
2022-09-12T12:54:58.205Z,22.40
2022-09-12T12:57:37.215Z,22.40
2022-09-12T13:00:23.013Z,22.50
2022-09-12T13:03:07.728Z,22.60
2022-09-12T13:05:48.096Z,22.60
2022-09-12T13:08:18.308Z,22.60
2022-09-12T13:11:01.953Z,22.60
2022-09-12T13:18:48.976Z,22.60
2022-09-12T13:21:18.634Z,22.50
2022-09-12T13:24:00.477Z,22.40
2022-09-12T13:26:27.837Z,22.50
2022-09-12T13:29:18.545Z,22.40
2022-09-12T13:31:48.693Z,22.50
2022-09-12T13:34:23.987Z,22.60
2022-09-12T13:41:45.278Z,22.60
2022-09-12T13:44:16.702Z,22.60
2022-09-12T13:46:43.825Z,22.60
2022-09-12T13:49:35.752Z,22.50
2022-09-12T13:52:25.942Z,22.40
2022-09-12T14:04:40.543Z,22.40
2022-09-12T14:07:13.107Z,22.50
2022-09-12T14:09:43.254Z,22.70
2022-09-12T14:12:34.401Z,22.60
2022-09-12T14:15:01.881Z,22.60
2022-09-12T14:17:35.950Z,21.90
2022-09-12T14:22:55.284Z,22.60
2022-09-12T14:25:25.041Z,22.60
2022-09-12T14:27:55.015Z,22.60
2022-09-12T14:30:27.920Z,22.50
2022-09-12T14:33:17.428Z,22.50
2022-09-12T14:35:50.258Z,22.50
2022-09-12T14:38:17.357Z,22.50
2022-09-12T14:46:24.511Z,22.40
2022-09-12T14:49:00.528Z,22.40
2022-09-12T14:51:51.256Z,22.50
2022-09-12T14:58:06.489Z,22.40
2022-09-12T15:00:33.156Z,22.40
2022-09-12T15:08:03.570Z,22.20
2022-09-12T15:10:34.884Z,22.10
2022-09-12T15:13:14.085Z,22.10
2022-09-12T15:15:43.948Z,22.10
2022-09-12T15:18:12.652Z,22.00
2022-09-12T15:20:43.439Z,21.90
2022-09-12T15:23:17.390Z,21.90
2022-09-12T15:30:51.935Z,21.80
2022-09-12T15:33:22.706Z,21.80
2022-09-12T15:35:50.496Z,21.70
2022-09-12T15:41:39.142Z,21.60
2022-09-12T15:44:10.708Z,21.60
2022-09-12T15:46:37.472Z,21.50
2022-09-12T15:53:46.141Z,21.50
2022-09-12T15:56:17.602Z,21.30
2022-09-12T16:01:47.046Z,21.20
2022-09-12T16:04:29.955Z,21.10
2022-09-12T16:06:57.895Z,21.10
2022-09-12T16:09:25.035Z,21.00
2022-09-12T16:16:13.390Z,21.00
2022-09-12T16:18:41.612Z,21.60
2022-09-12T16:21:14.211Z,20.70
2022-09-12T16:23:43.954Z,20.90
2022-09-12T16:26:11.030Z,20.90
2022-09-12T16:28:38.309Z,20.80
2022-09-12T16:31:07.855Z,20.80
2022-09-12T16:38:25.163Z,20.70
2022-09-12T16:40:52.048Z,20.60
2022-09-12T16:43:20.055Z,20.50
2022-09-12T16:45:46.870Z,20.50
2022-09-12T16:48:13.786Z,20.50
2022-09-12T16:50:40.953Z,20.40
2022-09-12T16:53:08.004Z,20.40
2022-09-12T17:00:41.901Z,20.30
2022-09-12T17:03:10.537Z,20.30
2022-09-12T17:05:37.599Z,20.30
2022-09-12T17:08:04.895Z,20.30
2022-09-12T17:10:32.195Z,20.20
2022-09-12T17:12:59.413Z,20.20
2022-09-12T17:15:26.758Z,20.10
2022-09-12T17:22:40.697Z,20.10
2022-09-12T17:25:08.133Z,20.00
2022-09-12T17:27:35.417Z,20.00
2022-09-12T17:30:04.472Z,20.00
2022-09-12T17:32:33.045Z,19.90
2022-09-12T17:35:01.152Z,19.90
2022-09-12T17:37:28.245Z,19.90
2022-09-12T17:45:08.796Z,20.00
2022-09-12T17:47:36.036Z,19.70
2022-09-12T17:50:29.838Z,19.70
2022-09-12T17:52:51.434Z,19.70
2022-09-12T17:55:18.385Z,19.60
2022-09-12T17:57:45.355Z,19.50
2022-09-12T18:00:13.000Z,19.50
2022-09-12T18:05:26.033Z,19.50
2022-09-12T18:07:55.700Z,21.40
2022-09-12T18:10:27.012Z,20.60
2022-09-12T18:12:55.016Z,19.40
2022-09-12T18:15:23.452Z,17.10
2022-09-12T18:17:51.326Z,19.30
2022-09-12T18:20:18.539Z,19.20
2022-09-12T18:25:23.509Z,19.20
2022-09-12T18:27:50.701Z,19.20
2022-09-12T18:30:21.853Z,19.10
2022-09-12T18:32:51.868Z,19.10
2022-09-12T18:35:22.202Z,19.10
2022-09-12T18:37:49.123Z,19.10
2022-09-12T18:40:16.346Z,19.00
2022-09-12T18:47:08.479Z,18.60
2022-09-12T18:49:35.691Z,18.90
2022-09-12T18:52:02.766Z,18.80
2022-09-12T18:54:29.806Z,18.80
2022-09-12T18:56:56.792Z,18.80
2022-09-12T18:59:23.965Z,18.70
2022-09-12T19:01:50.910Z,18.70
2022-09-12T19:08:50.678Z,18.40
2022-09-12T19:11:19.543Z,18.60
2022-09-12T19:13:48.258Z,18.60
2022-09-12T19:16:18.733Z,18.50
2022-09-12T19:18:49.305Z,18.50
2022-09-12T19:21:19.805Z,18.50
2022-09-12T19:23:46.881Z,18.50
2022-09-12T19:28:56.370Z,18.50
2022-09-12T19:31:24.796Z,18.50
2022-09-12T19:33:52.504Z,18.50
2022-09-12T19:36:43.916Z,18.50
2022-09-12T19:39:09.255Z,18.50
2022-09-12T19:41:36.336Z,18.40
2022-09-12T19:44:04.290Z,18.50
2022-09-12T19:51:34.284Z,18.50
2022-09-12T19:54:01.095Z,18.50
2022-09-12T19:56:28.163Z,18.40
2022-09-12T19:58:56.590Z,18.40
2022-09-12T20:01:29.906Z,18.40
2022-09-12T20:03:57.534Z,18.40
2022-09-12T20:06:25.657Z,18.40
2022-09-12T20:13:59.725Z,17.60
2022-09-12T20:16:28.665Z,18.40
2022-09-12T20:18:58.718Z,18.70
2022-09-12T20:21:31.652Z,18.40
2022-09-12T20:24:07.867Z,18.30
2022-09-12T20:26:35.536Z,18.30
2022-09-12T20:29:04.824Z,18.30
2022-09-12T20:34:27.069Z,18.20
2022-09-12T20:36:53.760Z,18.20
2022-09-12T20:39:22.531Z,18.20
2022-09-12T20:41:49.912Z,18.20
2022-09-12T20:44:17.019Z,18.20
2022-09-12T20:46:44.187Z,18.20
2022-09-12T20:49:10.853Z,18.20
2022-09-12T20:51:38.837Z,18.30
2022-09-12T20:59:34.787Z,18.20
2022-09-12T21:02:01.671Z,18.10
2022-09-12T21:04:28.525Z,18.10
2022-09-12T21:06:55.435Z,18.10
2022-09-12T21:09:22.490Z,18.10
2022-09-12T21:11:49.777Z,18.10
2022-09-12T21:14:17.012Z,18.10
2022-09-12T21:22:00.854Z,18.40
2022-09-12T21:24:28.135Z,18.10
2022-09-12T21:26:54.863Z,18.10
2022-09-12T21:29:21.798Z,18.10
2022-09-12T21:31:48.794Z,18.10
2022-09-12T21:34:17.827Z,18.10
2022-09-12T21:36:44.488Z,18.10
2022-09-12T21:41:51.724Z,18.00
2022-09-12T21:44:18.651Z,18.10
2022-09-12T21:46:45.675Z,18.00
2022-09-12T21:49:12.790Z,18.00
2022-09-12T21:51:39.679Z,18.00
2022-09-12T21:54:09.608Z,18.00
2022-09-12T21:56:36.465Z,18.00
2022-09-12T22:01:53.993Z,18.10
2022-09-12T22:04:24.054Z,18.10
2022-09-12T22:06:50.839Z,18.00
2022-09-12T22:09:17.767Z,18.00
2022-09-12T22:11:44.577Z,18.00
2022-09-12T22:14:14.398Z,18.10
2022-09-12T22:16:42.420Z,18.30
2022-09-12T22:24:22.722Z,18.00
2022-09-12T22:26:49.765Z,18.00
2022-09-12T22:29:16.759Z,18.00
2022-09-12T22:31:44.065Z,18.00
2022-09-12T22:34:10.794Z,18.00
2022-09-12T22:36:39.132Z,18.00
2022-09-12T22:39:06.760Z,18.00
2022-09-12T22:46:40.254Z,18.20
2022-09-12T22:49:09.953Z,18.00
2022-09-12T22:51:40.117Z,18.00
2022-09-12T22:54:10.587Z,18.00
2022-09-12T22:56:37.638Z,18.00
2022-09-12T22:59:05.150Z,18.00
2022-09-12T23:01:33.090Z,18.00
2022-09-12T23:06:51.317Z,18.00
2022-09-12T23:09:18.355Z,18.00
2022-09-12T23:11:45.485Z,18.00
2022-09-12T23:14:12.618Z,18.00
2022-09-12T23:16:39.707Z,17.90
2022-09-12T23:19:06.816Z,17.90
2022-09-12T23:21:34.004Z,17.90
2022-09-12T23:29:05.083Z,17.50
2022-09-12T23:31:33.494Z,17.40
2022-09-12T23:34:02.862Z,17.30
2022-09-12T23:36:30.025Z,17.20
2022-09-12T23:38:57.736Z,17.20
2022-09-12T23:41:24.847Z,17.10
2022-09-12T23:43:51.997Z,17.10
2022-09-12T23:49:15.517Z,16.50
2022-09-12T23:51:42.541Z,17.20
2022-09-12T23:54:09.334Z,17.20
2022-09-12T23:56:36.050Z,17.20
2022-09-12T23:59:02.986Z,17.20
